Time;durP1;ratioP1;P1;durP2;ratioP2;P2;SDS_P1;SDS_P2;PMS_P1;PMS_P2;Temp;Humidity;BMP_temperature;BMP_pressure;BME280_temperature;BME280_humidity;BME280_pressure;Samples;Min_cycle;Max_cycle;Signal;HPM_P1;HPM_P2
2023/05/25 00:01:02;;;;;;;30.33;19.55;;;14.50;99.90;;;;;;5014253;28;20513;-79
2023/05/25 00:03:30;;;;;;;34.53;18.92;;;14.50;99.90;;;;;;5034516;28;20509;-79
2023/05/25 00:06:00;;;;;;;36.42;18.27;;;14.50;99.90;;;;;;5029372;28;20050;-79
2023/05/25 00:08:27;;;;;;;32.63;19.30;;;14.50;99.90;;;;;;5030020;28;20053;-79
2023/05/25 00:10:56;;;;;;;29.67;18.35;;;14.40;99.90;;;;;;5006481;28;20513;-78
2023/05/25 00:13:23;;;;;;;33.67;19.02;;;14.40;99.90;;;;;;5027555;28;20060;-79
2023/05/25 00:15:51;;;;;;;32.55;18.63;;;14.40;99.90;;;;;;5011137;28;20050;-79
2023/05/25 00:18:18;;;;;;;29.42;18.45;;;14.40;99.90;;;;;;5027624;28;20111;-79
2023/05/25 00:20:46;;;;;;;40.95;14.40;;;14.40;99.90;;;;;;5020260;28;20100;-78
2023/05/25 00:23:13;;;;;;;43.17;14.70;;;14.50;99.90;;;;;;5041235;28;20540;-79
2023/05/25 00:25:41;;;;;;;103.20;17.48;;;14.60;99.90;;;;;;5018173;28;20084;-79
2023/05/25 00:28:10;;;;;;;69.95;17.83;;;14.70;99.90;;;;;;5028270;28;20149;-79
2023/05/25 00:30:38;;;;;;;53.28;13.32;;;14.80;99.90;;;;;;5027511;28;20049;-78
2023/05/25 00:33:05;;;;;;;19.77;11.82;;;14.90;99.90;;;;;;5013389;28;20053;-78
2023/05/25 00:35:33;;;;;;;30.67;13.00;;;15.00;99.90;;;;;;5027100;28;20060;-81
2023/05/25 00:38:00;;;;;;;22.58;12.98;;;15.10;99.90;;;;;;5035764;28;20053;-79
2023/05/25 00:40:27;;;;;;;28.85;12.98;;;15.20;99.90;;;;;;5041836;28;20056;-79
2023/05/25 00:42:55;;;;;;;36.00;15.38;;;15.20;99.90;;;;;;5041524;28;20041;-79
2023/05/25 00:45:25;;;;;;;36.30;14.43;;;15.20;99.90;;;;;;5015223;28;20115;-79
2023/05/25 00:47:54;;;;;;;26.27;12.73;;;15.10;99.90;;;;;;5047568;28;20049;-79
2023/05/25 00:50:36;;;;;;;38.30;15.35;;;15.00;99.90;;;;;;5033680;28;20091;-79
2023/05/25 00:53:05;;;;;;;30.77;14.85;;;15.00;99.90;;;;;;5036096;28;20049;-79
2023/05/25 00:55:39;;;;;;;34.33;14.90;;;14.90;99.90;;;;;;5005835;28;20136;-79
2023/05/25 00:58:08;;;;;;;31.33;15.00;;;14.80;99.90;;;;;;5033838;28;20607;-79
2023/05/25 01:00:41;;;;;;;33.10;15.82;;;14.80;99.90;;;;;;5031555;28;20104;-80
2023/05/25 01:03:16;;;;;;;44.63;13.05;;;14.80;99.90;;;;;;5028143;28;20049;-80
2023/05/25 01:05:48;;;;;;;31.02;13.88;;;14.80;99.90;;;;;;5011883;28;20049;-80
2023/05/25 01:08:20;;;;;;;38.28;14.98;;;14.80;99.90;;;;;;5021860;28;20053;-81
2023/05/25 01:10:49;;;;;;;32.97;15.23;;;14.80;99.90;;;;;;5033621;28;20077;-78
2023/05/25 01:13:20;;;;;;;36.47;14.35;;;14.70;99.90;;;;;;5014550;28;20053;-79
2023/05/25 01:15:51;;;;;;;33.55;14.65;;;14.70;99.90;;;;;;5014591;28;20045;-80
2023/05/25 01:18:19;;;;;;;39.20;13.95;;;14.80;99.90;;;;;;5015074;28;20046;-80
2023/05/25 01:21:00;;;;;;;38.40;15.25;;;14.70;99.90;;;;;;5008890;28;20053;-79
2023/05/25 01:23:35;;;;;;;35.72;13.90;;;14.80;99.90;;;;;;5032723;28;20053;-79
2023/05/25 01:26:09;;;;;;;42.22;15.85;;;14.80;99.90;;;;;;5024986;28;20046;-80
2023/05/25 01:28:42;;;;;;;48.70;15.15;;;14.80;99.90;;;;;;5022215;28;20532;-80
2023/05/25 01:31:10;;;;;;;32.70;13.52;;;14.80;99.90;;;;;;5032838;28;20342;-80
2023/05/25 01:33:38;;;;;;;38.13;15.10;;;14.80;99.90;;;;;;5015387;28;20042;-80
2023/05/25 01:36:07;;;;;;;43.30;15.40;;;14.80;99.90;;;;;;5031751;28;20060;-80
2023/05/25 01:38:36;;;;;;;36.95;13.23;;;14.80;99.90;;;;;;5031736;28;20045;-79
2023/05/25 01:41:04;;;;;;;36.53;13.70;;;14.80;99.90;;;;;;5031715;28;20045;-80
2023/05/25 01:43:32;;;;;;;39.08;13.98;;;14.90;99.90;;;;;;5032829;28;20046;-81
2023/05/25 01:46:12;;;;;;;56.13;14.38;;;14.90;99.90;;;;;;5006015;28;20566;-81
2023/05/25 01:48:49;;;;;;;67.57;15.88;;;14.90;99.90;;;;;;5032053;28;20057;-81
2023/05/25 01:51:27;;;;;;;73.90;18.20;;;14.90;99.90;;;;;;5014353;28;20144;-81
2023/05/25 01:54:00;;;;;;;91.15;17.75;;;15.00;99.90;;;;;;5028502;28;20535;-81
2023/05/25 01:56:31;;;;;;;62.53;15.88;;;15.00;99.90;;;;;;4993728;28;20077;-80
2023/05/25 01:59:01;;;;;;;58.22;17.63;;;15.10;99.90;;;;;;5010400;28;20528;-80
2023/05/25 02:01:30;;;;;;;51.45;14.25;;;15.10;99.90;;;;;;5005406;28;20080;-80
2023/05/25 02:03:59;;;;;;;32.22;13.80;;;15.10;99.90;;;;;;4996578;28;20049;-79
2023/05/25 02:06:28;;;;;;;30.80;13.73;;;15.20;99.90;;;;;;5029824;28;20049;-80
2023/05/25 02:08:55;;;;;;;33.35;13.38;;;15.20;99.90;;;;;;5031180;28;20045;-80
2023/05/25 02:11:23;;;;;;;51.65;14.75;;;15.20;99.90;;;;;;5030344;28;20132;-80
2023/05/25 02:13:52;;;;;;;59.78;16.48;;;15.20;99.90;;;;;;4999682;28;20050;-80
2023/05/25 02:16:19;;;;;;;46.17;16.50;;;15.20;99.90;;;;;;4993833;28;20149;-80
2023/05/25 02:18:47;;;;;;;51.22;16.58;;;15.20;99.90;;;;;;4997995;28;20057;-80
2023/05/25 02:21:16;;;;;;;44.45;16.30;;;15.10;99.90;;;;;;5009914;28;20042;-79
2023/05/25 02:23:46;;;;;;;43.80;14.02;;;15.00;99.90;;;;;;5005976;28;20516;-79
2023/05/25 02:26:14;;;;;;;45.53;14.02;;;15.00;99.90;;;;;;5029848;28;20131;-81
2023/05/25 02:28:43;;;;;;;33.03;12.80;;;15.00;99.90;;;;;;5013278;28;20137;-81
2023/05/25 02:31:11;;;;;;;42.03;14.02;;;15.00;99.90;;;;;;5003808;28;20099;-80
2023/05/25 02:33:38;;;;;;;32.05;13.75;;;15.00;99.90;;;;;;4977038;28;20144;-79
2023/05/25 02:36:06;;;;;;;39.40;14.80;;;15.00;99.90;;;;;;5016703;28;20045;-80
2023/05/25 02:38:33;;;;;;;39.15;15.60;;;15.10;99.90;;;;;;5028150;28;20610;-79
2023/05/25 02:41:02;;;;;;;34.45;14.32;;;15.00;99.90;;;;;;5027356;28;20049;-79
2023/05/25 02:43:31;;;;;;;39.30;15.23;;;15.00;99.90;;;;;;5029128;28;20049;-80
2023/05/25 02:45:58;;;;;;;41.08;15.65;;;14.90;99.90;;;;;;5029620;28;20057;-80
2023/05/25 02:48:29;;;;;;;36.17;14.80;;;14.80;99.90;;;;;;5029554;28;20450;-80
2023/05/25 02:50:56;;;;;;;33.67;15.98;;;14.70;99.90;;;;;;5028428;28;20041;-80
2023/05/25 02:53:24;;;;;;;28.58;15.70;;;14.70;99.90;;;;;;5011480;28;20044;-80
2023/05/25 02:55:51;;;;;;;31.17;13.95;;;14.70;99.90;;;;;;5012910;28;20540;-80
2023/05/25 02:58:24;;;;;;;31.77;14.68;;;14.70;99.90;;;;;;5027537;28;20049;-80
2023/05/25 03:01:04;;;;;;;34.50;14.52;;;14.70;99.90;;;;;;5008797;28;20053;-79
2023/05/25 03:03:32;;;;;;;22.75;13.68;;;14.60;99.90;;;;;;5009005;28;20049;-79
2023/05/25 03:06:00;;;;;;;23.52;12.40;;;14.70;99.90;;;;;;5027926;28;20053;-79
2023/05/25 03:08:28;;;;;;;29.48;14.10;;;14.70;99.90;;;;;;5021287;28;20054;-79
2023/05/25 03:10:55;;;;;;;24.35;11.32;;;14.90;99.90;;;;;;5011581;28;20050;-78
2023/05/25 03:13:24;;;;;;;20.13;10.85;;;15.00;99.90;;;;;;5010646;28;20048;-79
2023/05/25 03:15:51;;;;;;;21.00;11.15;;;15.20;99.90;;;;;;5024342;28;20436;-77
2023/05/25 03:18:19;;;;;;;19.73;11.15;;;15.30;99.90;;;;;;5012931;28;20053;-79
2023/05/25 03:20:47;;;;;;;21.55;10.15;;;15.40;99.90;;;;;;5028040;28;20073;-80
2023/05/25 03:23:15;;;;;;;14.65;9.32;;;15.50;99.90;;;;;;5013011;28;20132;-80
2023/05/25 03:25:43;;;;;;;16.58;9.95;;;15.60;99.90;;;;;;5018986;28;20143;-80
2023/05/25 03:28:10;;;;;;;17.13;10.43;;;15.70;99.90;;;;;;5031754;28;20509;-80
2023/05/25 03:30:40;;;;;;;21.15;10.63;;;15.80;99.90;;;;;;5011094;28;20513;-80
2023/05/25 03:33:09;;;;;;;20.90;9.57;;;15.90;99.90;;;;;;5045894;28;20049;-79
2023/05/25 03:35:43;;;;;;;19.55;9.73;;;15.90;99.90;;;;;;5030643;28;20107;-79
2023/05/25 03:38:11;;;;;;;20.70;9.60;;;16.00;99.90;;;;;;5028029;28;20063;-80
2023/05/25 03:40:38;;;;;;;23.13;9.45;;;16.10;99.90;;;;;;5026748;28;20505;-80
2023/05/25 03:43:06;;;;;;;20.58;9.48;;;16.20;99.90;;;;;;5038574;28;20439;-79
2023/05/25 03:45:33;;;;;;;19.38;9.27;;;16.20;99.90;;;;;;5038369;28;20528;-80
2023/05/25 03:48:02;;;;;;;25.48;10.45;;;16.30;99.90;;;;;;5028851;28;20379;-79
2023/05/25 03:50:33;;;;;;;24.45;12.20;;;16.30;99.90;;;;;;5011207;28;20060;-78
2023/05/25 03:53:00;;;;;;;27.33;10.65;;;16.40;99.90;;;;;;5014785;28;20145;-80
2023/05/25 03:55:28;;;;;;;27.73;11.50;;;16.50;99.90;;;;;;5001411;28;20037;-79
2023/05/25 03:57:55;;;;;;;29.17;13.10;;;16.60;99.90;;;;;;5035757;28;20053;-80
2023/05/25 04:00:23;;;;;;;26.50;13.23;;;16.60;99.90;;;;;;5010306;28;20049;-80
2023/05/25 04:02:51;;;;;;;25.10;13.25;;;16.70;99.90;;;;;;4996724;28;20046;-79
2023/05/25 04:05:19;;;;;;;27.67;13.02;;;16.80;99.90;;;;;;5010579;28;20080;-79
2023/05/25 04:07:47;;;;;;;22.33;11.25;;;16.90;99.90;;;;;;5021525;28;20060;-78
2023/05/25 04:10:15;;;;;;;28.45;11.57;;;17.00;99.90;;;;;;5017691;28;20038;-80
2023/05/25 04:12:42;;;;;;;30.27;12.18;;;17.00;99.90;;;;;;5029474;28;20052;-80
2023/05/25 04:15:13;;;;;;;25.80;12.60;;;17.10;99.90;;;;;;5010878;28;20572;-79
2023/05/25 04:17:58;;;;;;;23.55;13.02;;;17.10;99.90;;;;;;5028553;28;20050;-80
2023/05/25 04:20:27;;;;;;;28.73;16.50;;;17.30;99.90;;;;;;5043518;28;20112;-80
2023/05/25 04:22:56;;;;;;;25.92;14.55;;;17.40;99.90;;;;;;5019203;28;20042;-79
2023/05/25 04:25:23;;;;;;;24.67;12.90;;;17.50;99.90;;;;;;5030456;28;20052;-80
2023/05/25 04:27:52;;;;;;;28.17;12.98;;;17.60;99.90;;;;;;5031063;28;20053;-79
2023/05/25 04:30:31;;;;;;;27.60;11.93;;;17.70;99.90;;;;;;4997282;28;20042;-80
2023/05/25 04:33:10;;;;;;;22.02;11.23;;;17.70;99.90;;;;;;5011181;28;20060;-80
2023/05/25 04:35:58;;;;;;;24.92;12.13;;;17.90;99.90;;;;;;5014507;28;20518;-81
2023/05/25 04:38:26;;;;;;;23.10;11.38;;;18.00;99.90;;;;;;5035292;28;20089;-79
2023/05/25 04:40:53;;;;;;;18.65;11.18;;;18.10;99.90;;;;;;5031739;28;20115;-80
2023/05/25 04:43:24;;;;;;;17.60;10.38;;;18.20;99.90;;;;;;5014905;28;20045;-80
2023/05/25 04:45:53;;;;;;;21.60;10.27;;;18.20;99.90;;;;;;5001476;28;20481;-80
2023/05/25 04:48:23;;;;;;;27.27;12.13;;;18.30;99.90;;;;;;5016796;28;20045;-81
2023/05/25 04:50:51;;;;;;;22.83;10.43;;;18.40;99.90;;;;;;5030584;28;20049;-79
2023/05/25 04:53:20;;;;;;;23.98;9.57;;;18.50;99.90;;;;;;5028863;28;20061;-79
2023/05/25 04:55:50;;;;;;;22.20;10.00;;;18.60;99.90;;;;;;5011486;28;20059;-78
2023/05/25 04:58:31;;;;;;;20.25;9.82;;;18.70;99.90;;;;;;5021484;28;20052;-77
2023/05/25 05:00:59;;;;;;;16.60;8.95;;;18.80;99.90;;;;;;5014265;28;20055;-76
2023/05/25 05:03:27;;;;;;;15.65;9.93;;;18.90;99.90;;;;;;5019454;28;20043;-78
2023/05/25 05:05:55;;;;;;;15.70;7.40;;;19.00;99.90;;;;;;5024307;28;20046;-78
2023/05/25 05:08:28;;;;;;;15.02;7.68;;;19.10;99.90;;;;;;5010433;28;20498;-78
2023/05/25 05:10:55;;;;;;;22.27;8.25;;;19.30;99.90;;;;;;5019312;28;20088;-80
2023/05/25 05:13:24;;;;;;;18.60;6.78;;;19.40;99.90;;;;;;5008710;28;20520;-79
2023/05/25 05:15:54;;;;;;;12.48;6.65;;;19.60;99.90;;;;;;5013516;28;20153;-76
2023/05/25 05:18:25;;;;;;;16.47;6.00;;;19.80;99.90;;;;;;5007859;28;20073;-77
2023/05/25 05:20:53;;;;;;;12.82;5.70;;;20.00;99.90;;;;;;5012197;28;20069;-81
2023/05/25 05:23:20;;;;;;;15.93;6.07;;;20.20;99.90;;;;;;4994221;28;20049;-79
2023/05/25 05:25:49;;;;;;;11.95;5.70;;;20.40;99.90;;;;;;5011260;28;20049;-75
2023/05/25 05:28:17;;;;;;;11.32;6.32;;;20.60;99.90;;;;;;5027901;28;20050;-77
2023/05/25 05:30:48;;;;;;;11.65;5.90;;;20.90;99.90;;;;;;5008601;28;20054;-78
2023/05/25 05:33:15;;;;;;;13.68;5.75;;;21.20;99.90;;;;;;5030787;28;20103;-76
2023/05/25 05:35:47;;;;;;;14.50;5.20;;;21.60;99.90;;;;;;5007506;28;20502;-77
2023/05/25 05:38:21;;;;;;;11.60;5.57;;;22.20;99.90;;;;;;5026530;28;20317;-79
2023/05/25 05:40:51;;;;;;;15.52;5.18;;;22.70;98.90;;;;;;5026835;28;20064;-79
2023/05/25 05:43:25;;;;;;;12.40;5.65;;;23.20;96.40;;;;;;5011936;28;20140;-80
2023/05/25 05:45:53;;;;;;;11.07;4.85;;;23.80;93.10;;;;;;5008469;28;20501;-80
2023/05/25 05:48:20;;;;;;;16.10;4.75;;;24.20;92.30;;;;;;5011282;28;20094;-78
2023/05/25 05:50:48;;;;;;;8.73;4.47;;;24.60;90.80;;;;;;5030650;28;20092;-80
2023/05/25 05:53:16;;;;;;;6.35;4.50;;;24.90;88.00;;;;;;5028902;28;20092;-79
2023/05/25 05:55:44;;;;;;;12.43;4.60;;;25.40;83.70;;;;;;5014202;28;20037;-79
2023/05/25 05:58:13;;;;;;;14.93;4.55;;;25.90;78.60;;;;;;5034223;28;20083;-81
2023/05/25 06:00:40;;;;;;;9.57;3.67;;;25.90;74.30;;;;;;5052057;28;20110;-79
2023/05/25 06:03:08;;;;;;;11.95;4.10;;;25.80;73.80;;;;;;5028007;28;20051;-78
2023/05/25 06:05:36;;;;;;;10.95;4.60;;;25.50;72.50;;;;;;5034261;28;20064;-79
2023/05/25 06:08:06;;;;;;;10.73;4.80;;;25.50;72.60;;;;;;5017401;28;20582;-78
2023/05/25 06:10:38;;;;;;;5.10;3.65;;;25.80;70.90;;;;;;5018671;28;20140;-79
2023/05/25 06:13:06;;;;;;;6.18;3.90;;;26.00;70.00;;;;;;5022580;28;20053;-79
2023/05/25 06:15:40;;;;;;;7.07;4.22;;;26.50;70.30;;;;;;5025067;28;20045;-80
2023/05/25 06:18:12;;;;;;;12.75;4.20;;;27.10;67.90;;;;;;5027177;28;20053;-79
2023/05/25 06:20:39;;;;;;;7.28;4.40;;;27.70;66.40;;;;;;5025750;28;20049;-79
2023/05/25 06:23:10;;;;;;;12.35;4.45;;;28.10;66.40;;;;;;5022788;28;20588;-80
2023/05/25 06:25:37;;;;;;;7.72;4.10;;;28.50;62.80;;;;;;5034580;28;20507;-78
2023/05/25 06:28:06;;;;;;;9.82;4.32;;;28.70;61.80;;;;;;5051479;28;20080;-79
2023/05/25 06:30:35;;;;;;;20.95;4.78;;;28.70;61.80;;;;;;5017550;28;20040;-78
2023/05/25 06:33:04;;;;;;;13.60;4.30;;;29.00;61.10;;;;;;5033663;28;20040;-79
2023/05/25 06:35:31;;;;;;;11.10;3.70;;;29.20;58.40;;;;;;5044096;28;20072;-79
2023/05/25 06:38:00;;;;;;;32.33;4.15;;;29.40;59.10;;;;;;5014952;28;20095;-82
2023/05/25 06:40:31;;;;;;;15.50;3.92;;;29.70;58.20;;;;;;5043083;28;20048;-80
2023/05/25 06:43:02;;;;;;;12.32;4.80;;;30.10;58.20;;;;;;5043385;28;20060;-81
2023/05/25 06:45:51;;;;;;;14.20;4.68;;;30.60;56.20;;;;;;5031098;28;20057;-80
2023/05/25 06:48:20;;;;;;;16.55;4.50;;;30.80;55.80;;;;;;5043631;28;20128;-81
2023/05/25 06:50:48;;;;;;;9.88;4.70;;;31.00;54.40;;;;;;5028065;28;20044;-80
2023/05/25 06:53:16;;;;;;;14.18;5.15;;;30.90;55.00;;;;;;5027841;28;20049;-81
2023/05/25 06:55:44;;;;;;;13.60;4.72;;;30.70;55.00;;;;;;5031807;28;20513;-79
2023/05/25 06:58:12;;;;;;;13.45;4.70;;;30.50;55.40;;;;;;5029161;28;20052;-80
2023/05/25 07:00:40;;;;;;;12.57;4.15;;;30.60;55.70;;;;;;5048283;28;20114;-80
2023/05/25 07:03:09;;;;;;;9.25;3.65;;;30.90;53.00;;;;;;5047440;28;20046;-80
2023/05/25 07:05:37;;;;;;;14.25;5.28;;;30.90;53.60;;;;;;5049717;28;20460;-80
2023/05/25 07:08:07;;;;;;;11.35;4.35;;;30.80;52.60;;;;;;5047658;28;20056;-80
2023/05/25 07:10:35;;;;;;;9.23;4.18;;;30.70;52.20;;;;;;5044829;28;20055;-81
2023/05/25 07:13:05;;;;;;;8.82;4.70;;;30.90;52.30;;;;;;5035087;28;20140;-81
2023/05/25 07:15:33;;;;;;;9.85;3.55;;;31.00;51.60;;;;;;5014801;28;20045;-80
2023/05/25 07:18:01;;;;;;;13.80;4.20;;;30.40;51.10;;;;;;5053489;28;20044;-80
2023/05/25 07:20:30;;;;;;;12.25;3.88;;;30.30;52.10;;;;;;5050207;28;20049;-80
2023/05/25 07:22:57;;;;;;;9.82;4.35;;;30.70;52.30;;;;;;5049312;28;20587;-81
2023/05/25 07:25:25;;;;;;;10.55;3.97;;;31.30;52.10;;;;;;5043244;28;20535;-78
2023/05/25 07:27:53;;;;;;;22.90;5.07;;;31.90;51.10;;;;;;5042224;28;20045;-79
2023/05/25 07:30:21;;;;;;;8.18;3.72;;;32.20;50.10;;;;;;5031706;28;20056;-77
2023/05/25 07:32:49;;;;;;;5.93;3.70;;;32.70;50.70;;;;;;5014977;28;20406;-80
2023/05/25 07:35:16;;;;;;;8.57;3.55;;;33.00;51.00;;;;;;5042246;28;20044;-82
2023/05/25 07:37:47;;;;;;;7.88;3.42;;;33.20;49.90;;;;;;5045881;28;20145;-81
2023/05/25 07:40:14;;;;;;;6.05;3.50;;;33.50;48.60;;;;;;5023068;28;20072;-80
2023/05/25 07:42:42;;;;;;;9.20;3.45;;;33.70;47.50;;;;;;5031232;28;20118;-79
2023/05/25 07:45:12;;;;;;;6.10;3.55;;;33.70;47.90;;;;;;5054666;28;20139;-81
2023/05/25 07:47:40;;;;;;;8.10;4.20;;;33.80;47.10;;;;;;5036429;28;20053;-79
2023/05/25 07:50:09;;;;;;;6.57;3.63;;;34.20;47.40;;;;;;5048306;28;20110;-80
2023/05/25 07:52:38;;;;;;;10.18;3.75;;;34.30;46.10;;;;;;5048095;28;20044;-79
2023/05/25 07:55:09;;;;;;;6.32;3.35;;;34.40;47.00;;;;;;5053227;28;20080;-80
2023/05/25 07:57:39;;;;;;;10.77;4.03;;;34.40;47.40;;;;;;5052796;28;20099;-80
2023/05/25 08:00:09;;;;;;;4.40;3.50;;;34.50;48.00;;;;;;5033231;28;20452;-78
2023/05/25 08:02:43;;;;;;;11.02;3.45;;;34.80;46.40;;;;;;5034995;28;20060;-80
2023/05/25 08:05:11;;;;;;;11.02;4.10;;;35.00;45.80;;;;;;5052139;28;20501;-81
2023/05/25 08:07:39;;;;;;;6.85;3.58;;;34.80;46.90;;;;;;5047869;28;20041;-81
2023/05/25 08:10:09;;;;;;;10.27;3.85;;;34.90;46.60;;;;;;5049984;28;20102;-78
2023/05/25 08:12:37;;;;;;;11.10;3.42;;;35.00;45.50;;;;;;5037881;28;20508;-80
2023/05/25 08:15:06;;;;;;;11.10;3.38;;;35.30;45.70;;;;;;5049417;28;20410;-81
2023/05/25 08:17:35;;;;;;;8.65;3.90;;;35.10;45.90;;;;;;5048054;28;20051;-80
2023/05/25 08:20:04;;;;;;;5.22;3.80;;;35.20;47.20;;;;;;5036867;28;20128;-80
2023/05/25 08:22:33;;;;;;;7.17;3.83;;;35.30;45.30;;;;;;5036442;28;20065;-77
2023/05/25 08:25:01;;;;;;;10.48;3.80;;;35.50;46.40;;;;;;5035001;28;20076;-79
2023/05/25 08:27:30;;;;;;;8.45;3.95;;;35.20;45.50;;;;;;5041511;28;20052;-78
2023/05/25 08:29:57;;;;;;;15.45;3.92;;;34.80;46.20;;;;;;5057649;28;20053;-79
2023/05/25 08:32:25;;;;;;;10.02;3.85;;;35.10;46.60;;;;;;5052570;28;20049;-78
2023/05/25 08:34:52;;;;;;;7.88;3.85;;;35.50;46.30;;;;;;5019382;28;20493;-81
2023/05/25 08:37:22;;;;;;;9.73;3.95;;;35.90;47.20;;;;;;5052591;28;20496;-78
2023/05/25 08:39:52;;;;;;;9.48;4.43;;;36.10;45.20;;;;;;5054065;28;20048;-79
2023/05/25 08:42:20;;;;;;;13.75;4.40;;;36.30;44.70;;;;;;5051936;28;20052;-80
2023/05/25 08:44:48;;;;;;;6.68;4.22;;;36.50;44.70;;;;;;5047310;28;20445;-79
2023/05/25 08:47:19;;;;;;;7.03;4.38;;;36.50;44.40;;;;;;5031770;28;20037;-78
2023/05/25 08:49:49;;;;;;;8.70;3.97;;;36.40;45.70;;;;;;5047859;28;20102;-78
2023/05/25 08:52:23;;;;;;;9.23;4.43;;;36.20;45.60;;;;;;5051801;28;20044;-78
2023/05/25 08:54:54;;;;;;;9.52;4.38;;;36.10;44.10;;;;;;5053004;28;20080;-79
2023/05/25 08:57:29;;;;;;;7.87;4.17;;;36.20;44.10;;;;;;5034861;28;20045;-78
2023/05/25 09:00:09;;;;;;;10.20;3.95;;;36.40;44.30;;;;;;5049476;28;20148;-80
2023/05/25 09:02:42;;;;;;;11.23;4.28;;;36.40;44.40;;;;;;5018914;28;20049;-82
2023/05/25 09:05:10;;;;;;;7.72;4.22;;;36.80;43.90;;;;;;5051874;28;20049;-82
2023/05/25 09:07:38;;;;;;;6.15;4.18;;;37.00;43.80;;;;;;5050040;28;20090;-87
2023/05/25 09:10:08;;;;;;;9.45;4.45;;;37.20;43.70;;;;;;5030659;28;20048;-88
2023/05/25 09:12:38;;;;;;;5.30;3.90;;;37.10;44.60;;;;;;5047522;28;20431;-87
2023/05/25 09:15:10;;;;;;;6.85;3.95;;;37.10;42.90;;;;;;5024426;28;20053;-86
2023/05/25 09:17:41;;;;;;;11.15;3.95;;;37.20;43.20;;;;;;5033749;28;20504;-88
2023/05/25 09:20:12;;;;;;;11.75;3.78;;;37.10;42.50;;;;;;5045429;28;20052;-90
2023/05/25 09:22:41;;;;;;;10.57;3.95;;;37.20;42.50;;;;;;5044311;28;20179;-81
2023/05/25 09:25:15;;;;;;;5.88;3.67;;;37.20;42.30;;;;;;5050257;28;20033;-80
2023/05/25 09:27:43;;;;;;;12.20;3.70;;;37.30;42.40;;;;;;5061607;28;20041;-81
2023/05/25 09:30:13;;;;;;;5.30;3.85;;;37.30;43.30;;;;;;5032782;28;20045;-80
2023/05/25 09:32:40;;;;;;;7.68;3.85;;;37.20;42.40;;;;;;5051373;28;20136;-85
2023/05/25 09:35:09;;;;;;;10.27;4.25;;;37.20;42.40;;;;;;5027269;28;20429;-83
2023/05/25 09:37:37;;;;;;;8.00;3.50;;;37.10;43.00;;;;;;5015670;28;20076;-84
2023/05/25 09:40:07;;;;;;;10.60;4.80;;;36.90;42.90;;;;;;5042447;28;20091;-78
2023/05/25 09:42:36;;;;;;;6.47;3.28;;;37.00;42.70;;;;;;5043385;28;20048;-78
2023/05/25 09:45:04;;;;;;;41.05;5.32;;;37.50;43.90;;;;;;5032756;28;20052;-78
2023/05/25 09:47:37;;;;;;;8.50;3.88;;;37.80;41.90;;;;;;5050639;28;20045;-78
2023/05/25 09:50:07;;;;;;;8.65;3.40;;;38.00;42.50;;;;;;5049192;28;20045;-77
2023/05/25 09:52:38;;;;;;;10.05;3.83;;;38.30;41.90;;;;;;5028897;28;20406;-85
2023/05/25 09:55:11;;;;;;;6.28;3.45;;;38.50;41.00;;;;;;5040096;28;20049;-79
2023/05/25 09:57:39;;;;;;;7.50;3.70;;;38.60;40.30;;;;;;5046606;28;20425;-81
2023/05/25 10:00:10;;;;;;;7.53;3.35;;;38.40;41.80;;;;;;5019635;28;20099;-82
2023/05/25 10:02:42;;;;;;;9.88;3.78;;;38.50;41.00;;;;;;5048606;28;20693;-80
2023/05/25 10:05:10;;;;;;;4.32;3.15;;;38.60;40.80;;;;;;5052381;28;20136;-83
2023/05/25 10:07:39;;;;;;;9.13;3.53;;;38.10;40.60;;;;;;5052639;28;20471;-83
2023/05/25 10:10:08;;;;;;;8.52;3.97;;;37.40;41.30;;;;;;5049095;28;20056;-83
2023/05/25 10:12:37;;;;;;;12.55;3.80;;;37.10;42.60;;;;;;5067834;28;20048;-83
2023/05/25 10:15:07;;;;;;;4.22;3.00;;;36.60;41.70;;;;;;5037606;28;20053;-83
2023/05/25 10:17:36;;;;;;;4.70;3.88;;;36.00;42.00;;;;;;5043095;28;20049;-84
2023/05/25 10:20:09;;;;;;;5.80;3.58;;;35.60;42.70;;;;;;5047291;28;20049;-84
2023/05/25 10:22:44;;;;;;;10.15;4.18;;;35.70;42.50;;;;;;5052515;28;20059;-84
2023/05/25 10:25:22;;;;;;;6.45;3.00;;;36.40;43.10;;;;;;5052302;28;20083;-83
2023/05/25 10:27:58;;;;;;;9.88;4.05;;;37.20;41.00;;;;;;5044847;28;20066;-82
2023/05/25 10:30:27;;;;;;;11.07;3.33;;;37.90;39.70;;;;;;5049625;28;20136;-82
2023/05/25 10:32:56;;;;;;;9.05;3.80;;;38.30;40.10;;;;;;5043126;28;20076;-83
2023/05/25 10:35:25;;;;;;;9.02;3.58;;;38.60;37.50;;;;;;5027114;28;20056;-83
2023/05/25 10:37:54;;;;;;;8.02;3.80;;;38.90;37.70;;;;;;5050147;28;20040;-82
2023/05/25 10:40:22;;;;;;;4.50;3.67;;;39.20;37.20;;;;;;5053189;28;20091;-83
2023/05/25 10:42:52;;;;;;;6.35;3.45;;;39.40;37.10;;;;;;5052107;28;20482;-83
2023/05/25 10:45:20;;;;;;;4.25;3.80;;;38.90;36.50;;;;;;5030451;28;20042;-84
2023/05/25 10:47:50;;;;;;;7.00;3.80;;;37.70;38.10;;;;;;5058020;28;20051;-80
2023/05/25 10:50:27;;;;;;;5.40;3.50;;;36.40;37.90;;;;;;5071398;28;20058;-78
2023/05/25 10:53:00;;;;;;;3.90;3.50;;;35.60;39.40;;;;;;5053661;28;20377;-79
2023/05/25 10:55:31;;;;;;;5.85;3.60;;;35.30;39.80;;;;;;5053959;28;20051;-78
2023/05/25 10:58:09;;;;;;;11.10;4.00;;;35.20;40.40;;;;;;5036661;28;20061;-78
2023/05/25 11:00:37;;;;;;;5.32;3.80;;;35.30;40.20;;;;;;5033294;28;20053;-78
2023/05/25 11:03:05;;;;;;;6.72;4.07;;;35.70;40.30;;;;;;5042039;28;20053;-79
2023/05/25 11:05:42;;;;;;;8.35;3.97;;;35.90;40.60;;;;;;5047882;28;20135;-79
2023/05/25 11:08:16;;;;;;;7.93;3.65;;;35.60;40.80;;;;;;5041639;28;20083;-79
2023/05/25 11:11:11;;;;;;;8.18;3.40;;;35.00;40.80;;;;;;5041965;28;20162;-76
2023/05/25 11:13:48;;;;;;;14.35;4.57;;;35.40;41.10;;;;;;5010226;28;20045;-78
2023/05/25 11:16:36;;;;;;;10.00;3.30;;;36.80;40.10;;;;;;5036465;28;20099;-79
2023/05/25 11:19:26;;;;;;;5.47;3.58;;;38.00;38.90;;;;;;5029610;28;20398;-80
2023/05/25 11:21:57;;;;;;;26.10;5.28;;;38.90;37.10;;;;;;5033225;28;20053;-79
2023/05/25 11:24:25;;;;;;;43.50;6.63;;;38.70;37.40;;;;;;5015190;28;20136;-81
2023/05/25 11:27:00;;;;;;;109.57;15.80;;;38.00;36.80;;;;;;5032890;28;20048;-80
2023/05/25 11:29:34;;;;;;;112.32;11.63;;;36.60;38.30;;;;;;5032973;28;20076;-80
2023/05/25 11:32:02;;;;;;;95.10;10.57;;;35.20;39.60;;;;;;5029845;28;20516;-80
2023/05/25 11:34:31;;;;;;;16.48;4.53;;;34.40;40.30;;;;;;5033798;28;20518;-78
2023/05/25 11:37:04;;;;;;;11.00;4.15;;;34.30;39.70;;;;;;5030195;28;20061;-79
2023/05/25 11:39:32;;;;;;;12.13;3.67;;;34.10;39.80;;;;;;4999484;28;20474;-79
2023/05/25 11:42:05;;;;;;;26.95;5.95;;;34.30;40.70;;;;;;5051335;28;20045;-80
2023/05/25 11:44:36;;;;;;;10.50;3.63;;;34.30;41.20;;;;;;5071393;28;20052;-81
2023/05/25 11:47:12;;;;;;;9.60;3.60;;;33.80;40.70;;;;;;5053260;28;20045;-79
2023/05/25 11:49:48;;;;;;;24.95;4.65;;;33.40;41.20;;;;;;5054975;28;20143;-80
2023/05/25 11:52:20;;;;;;;12.23;3.72;;;33.80;42.30;;;;;;5054564;28;20057;-79
2023/05/25 11:54:48;;;;;;;61.95;6.82;;;34.90;41.20;;;;;;5051599;28;20398;-79
2023/05/25 11:57:18;;;;;;;8.38;2.85;;;35.80;39.80;;;;;;5051051;28;20555;-80
2023/05/25 11:59:49;;;;;;;10.82;3.28;;;36.20;39.20;;;;;;5049397;28;20115;-81
2023/05/25 12:02:18;;;;;;;10.00;3.10;;;36.40;38.90;;;;;;5013385;28;20053;-81
2023/05/25 12:04:54;;;;;;;11.90;3.80;;;36.90;38.90;;;;;;5031561;28;20124;-80
2023/05/25 12:07:33;;;;;;;10.10;3.35;;;37.60;38.40;;;;;;5035868;28;20083;-79
2023/05/25 12:10:06;;;;;;;4.82;3.13;;;37.90;37.30;;;;;;5036470;28;20421;-80
2023/05/25 12:12:44;;;;;;;9.77;3.40;;;38.10;37.70;;;;;;5051072;28;20103;-79
2023/05/25 12:15:14;;;;;;;11.98;3.40;;;38.10;37.80;;;;;;5050569;28;20057;-80
2023/05/25 12:17:43;;;;;;;9.52;3.15;;;37.50;38.00;;;;;;5047982;28;20064;-80
2023/05/25 12:20:13;;;;;;;8.63;3.30;;;36.70;38.90;;;;;;5053569;28;20053;-80
2023/05/25 12:22:45;;;;;;;10.30;3.20;;;36.20;39.40;;;;;;5016464;28;20420;-80
2023/05/25 12:25:14;;;;;;;13.00;3.40;;;35.70;39.20;;;;;;5048657;28;20053;-81
2023/05/25 12:27:42;;;;;;;6.97;3.13;;;34.30;39.40;;;;;;5035346;28;20478;-80
2023/05/25 12:30:12;;;;;;;7.13;3.20;;;33.70;39.30;;;;;;5050599;28;20468;-80
2023/05/25 12:32:59;;;;;;;9.85;3.40;;;33.20;40.10;;;;;;5050753;28;20053;-80
2023/05/25 12:35:27;;;;;;;9.48;3.13;;;32.30;41.20;;;;;;5047484;28;20045;-80
2023/05/25 12:38:11;;;;;;;9.27;3.15;;;32.40;42.40;;;;;;5054104;28;20094;-80
2023/05/25 12:40:39;;;;;;;3.75;2.80;;;32.30;43.30;;;;;;5019593;28;20059;-79
2023/05/25 12:43:06;;;;;;;12.65;3.60;;;32.90;42.80;;;;;;5052461;28;20076;-80
2023/05/25 12:45:34;;;;;;;9.27;4.25;;;33.90;41.70;;;;;;5054105;28;20145;-80
2023/05/25 12:48:01;;;;;;;11.07;3.58;;;34.50;41.60;;;;;;5073817;28;20516;-80
2023/05/25 12:50:29;;;;;;;10.73;3.40;;;34.80;40.50;;;;;;5039390;28;20083;-81